Elmwood, IL

8:12 PM CDT on March 29, 2015 (GMT -0500)
Macomb Municipal | | Change Station
CLOSE
Current Station
Airport
Location: Macomb,
Elevation: 709 ft
Nearby Weather Stations

Elev 709 ft 40.52 °N, 90.65 °W | Updated 17 minutes ago

Mostly Cloudy
Mostly Cloudy
50 °F
Feels Like 50 °F
N
12
Wind Variable Wind from WNW

Today
High -- | Low -- °F
--% Chance of Precip.
Yesterday
High -- | Low -- °F
Precip. -- in
6:48 AM 7:21 PM
Waxing Gibbous, 75% visible
Pressure 29.96 in
Visibility 10.0 miles
Clouds Clear
Dew Point 40 °F
Humidity 69%
Rainfall 0.08 in
Snow Depth Not available.
UV 0 out of 12
Pollen 5.00 out of 12
Air Quality Not available.
Flu Activity Not available.
METAR KMQB 300055Z AUTO 29010KT 10SM CLR 10/05 A2996 RMK AO2 T01000045

More Conditions Fewer Conditions

Pressure 29.96 in
Visibility 10.0 miles
Clouds Clear
Dew Point 40 °F
Humidity 69%
Rainfall 0.08 in
Snow Depth Not available.
UV 0 out of 12
Pollen 5.00 out of 12
Air Quality Not available.
Flu Activity Not available.
METAR KMQB 300055Z AUTO 29010KT 10SM CLR 10/05 A2996 RMK AO2 T01000045

More Conditions Fewer Conditions

10-Day Weather Forecast

Almanac

Astronomy

Mar. 29, 2015 Rise Set
Actual Time
Civil Twilight
Nautical Twilight
Astronomical Twilight
Moon
Length of Visible Light
Length of Day
Tomorrow will be .
, % of the Moon is Illuminated

Today's Extremes

State Highs State Lows

Community

WunderPhotos

Upload Photos

1,809,392 photos uploaded!

WunderBlogs® & News

Nearby

Air Quality

  Air Quality AQ Index Pollutant
Not available.

Snow Depth

Station Depth Elevation

Earthquake Activity

City Distance Mag. Time & Date
Minimum magnitude displayed is 2.5.

Coastal Water Temperatures

Place Temperature

Stations

Nearby Weather Stations

Station Location Temp. Windchill Dew Point Humidity Wind Precip. Elev Updated Type